sensor_id;sensor_type;location;lat;lon;timestamp;P1;durP1;ratioP1;P2;durP2;ratioP2
13685;SDS011;6915;48.296;8.874;2023-04-24T01:13:07;0.70;;;0.23;;
13685;SDS011;6915;48.296;8.874;2023-04-24T01:15:36;1.57;;;0.30;;
13685;SDS011;6915;48.296;8.874;2023-04-24T01:18:05;0.63;;;0.30;;
13685;SDS011;6915;48.296;8.874;2023-04-24T01:20:34;2.00;;;0.30;;
13685;SDS011;6915;48.296;8.874;2023-04-24T01:23:06;1.83;;;0.50;;
13685;SDS011;6915;48.296;8.874;2023-04-24T01:25:35;1.33;;;0.60;;
13685;SDS011;6915;48.296;8.874;2023-04-24T01:28:05;1.23;;;0.30;;
13685;SDS011;6915;48.296;8.874;2023-04-24T01:30:34;1.67;;;0.50;;
13685;SDS011;6915;48.296;8.874;2023-04-24T01:33:02;1.23;;;0.20;;
13685;SDS011;6915;48.296;8.874;2023-04-24T01:35:33;1.67;;;0.50;;
13685;SDS011;6915;48.296;8.874;2023-04-24T01:38:03;2.40;;;0.30;;
13685;SDS011;6915;48.296;8.874;2023-04-24T01:40:32;0.83;;;0.30;;
13685;SDS011;6915;48.296;8.874;2023-04-24T01:43:01;1.20;;;0.40;;
13685;SDS011;6915;48.296;8.874;2023-04-24T01:45:30;1.90;;;0.50;;
13685;SDS011;6915;48.296;8.874;2023-04-24T01:47:59;0.40;;;0.30;;
13685;SDS011;6915;48.296;8.874;2023-04-24T01:50:29;0.93;;;0.23;;
13685;SDS011;6915;48.296;8.874;2023-04-24T01:52:58;1.13;;;0.53;;
13685;SDS011;6915;48.296;8.874;2023-04-24T01:55:28;1.80;;;0.40;;
13685;SDS011;6915;48.296;8.874;2023-04-24T01:57:57;1.47;;;0.40;;
13685;SDS011;6915;48.296;8.874;2023-04-24T02:00:28;0.40;;;0.30;;
13685;SDS011;6915;48.296;8.874;2023-04-24T02:02:57;1.33;;;0.43;;
13685;SDS011;6915;48.296;8.874;2023-04-24T02:05:28;0.47;;;0.30;;
13685;SDS011;6915;48.296;8.874;2023-04-24T02:07:57;1.53;;;0.60;;
13685;SDS011;6915;48.296;8.874;2023-04-24T02:10:25;1.00;;;0.53;;
13685;SDS011;6915;48.296;8.874;2023-04-24T02:12:55;1.27;;;0.40;;
13685;SDS011;6915;48.296;8.874;2023-04-24T02:15:24;2.17;;;0.50;;
13685;SDS011;6915;48.296;8.874;2023-04-24T02:17:53;1.57;;;0.60;;
13685;SDS011;6915;48.296;8.874;2023-04-24T02:20:22;2.97;;;0.70;;
13685;SDS011;6915;48.296;8.874;2023-04-24T02:22:51;0.90;;;0.40;;
13685;SDS011;6915;48.296;8.874;2023-04-24T02:25:20;1.47;;;0.63;;
13685;SDS011;6915;48.296;8.874;2023-04-24T02:27:48;1.63;;;0.50;;
13685;SDS011;6915;48.296;8.874;2023-04-24T02:30:18;1.27;;;0.40;;
13685;SDS011;6915;48.296;8.874;2023-04-24T02:32:47;2.47;;;0.50;;
13685;SDS011;6915;48.296;8.874;2023-04-24T02:35:16;0.50;;;0.40;;
13685;SDS011;6915;48.296;8.874;2023-04-24T02:37:45;0.73;;;0.33;;
13685;SDS011;6915;48.296;8.874;2023-04-24T02:40:14;1.60;;;0.63;;
13685;SDS011;6915;48.296;8.874;2023-04-24T02:42:43;1.13;;;0.40;;
13685;SDS011;6915;48.296;8.874;2023-04-24T02:45:11;1.10;;;0.50;;
13685;SDS011;6915;48.296;8.874;2023-04-24T02:47:41;1.73;;;0.60;;
13685;SDS011;6915;48.296;8.874;2023-04-24T02:50:10;1.60;;;0.47;;
13685;SDS011;6915;48.296;8.874;2023-04-24T02:52:39;1.00;;;0.30;;
13685;SDS011;6915;48.296;8.874;2023-04-24T02:55:07;0.50;;;0.40;;
13685;SDS011;6915;48.296;8.874;2023-04-24T02:57:36;0.83;;;0.40;;
13685;SDS011;6915;48.296;8.874;2023-04-24T03:00:06;1.10;;;0.50;;
13685;SDS011;6915;48.296;8.874;2023-04-24T03:02:34;1.93;;;0.60;;
13685;SDS011;6915;48.296;8.874;2023-04-24T03:05:04;1.30;;;0.50;;
13685;SDS011;6915;48.296;8.874;2023-04-24T03:07:34;1.33;;;0.30;;
13685;SDS011;6915;48.296;8.874;2023-04-24T03:10:03;0.63;;;0.40;;
13685;SDS011;6915;48.296;8.874;2023-04-24T03:12:33;0.73;;;0.50;;
13685;SDS011;6915;48.296;8.874;2023-04-24T03:15:02;1.17;;;0.40;;
13685;SDS011;6915;48.296;8.874;2023-04-24T03:17:32;1.07;;;0.40;;
13685;SDS011;6915;48.296;8.874;2023-04-24T03:20:02;0.77;;;0.30;;
13685;SDS011;6915;48.296;8.874;2023-04-24T03:22:34;1.33;;;0.40;;
13685;SDS011;6915;48.296;8.874;2023-04-24T03:25:03;0.83;;;0.73;;
13685;SDS011;6915;48.296;8.874;2023-04-24T03:27:34;1.00;;;0.60;;
13685;SDS011;6915;48.296;8.874;2023-04-24T03:30:04;0.97;;;0.60;;
13685;SDS011;6915;48.296;8.874;2023-04-24T03:32:35;1.30;;;0.50;;
13685;SDS011;6915;48.296;8.874;2023-04-24T03:35:04;0.47;;;0.47;;
13685;SDS011;6915;48.296;8.874;2023-04-24T03:37:35;1.50;;;0.50;;
13685;SDS011;6915;48.296;8.874;2023-04-24T03:40:05;1.53;;;0.60;;
13685;SDS011;6915;48.296;8.874;2023-04-24T03:42:33;2.60;;;0.50;;
13685;SDS011;6915;48.296;8.874;2023-04-24T03:45:01;0.97;;;0.50;;
13685;SDS011;6915;48.296;8.874;2023-04-24T03:47:30;1.43;;;0.50;;
13685;SDS011;6915;48.296;8.874;2023-04-24T03:49:59;1.47;;;0.43;;
13685;SDS011;6915;48.296;8.874;2023-04-24T03:52:28;2.30;;;0.40;;
13685;SDS011;6915;48.296;8.874;2023-04-24T03:54:58;2.20;;;1.70;;
13685;SDS011;6915;48.296;8.874;2023-04-24T03:57:27;3.07;;;2.10;;
13685;SDS011;6915;48.296;8.874;2023-04-24T03:59:56;2.50;;;1.50;;
13685;SDS011;6915;48.296;8.874;2023-04-24T04:02:25;4.67;;;1.70;;
13685;SDS011;6915;48.296;8.874;2023-04-24T04:04:53;3.77;;;2.30;;
13685;SDS011;6915;48.296;8.874;2023-04-24T04:07:22;9.90;;;6.00;;
13685;SDS011;6915;48.296;8.874;2023-04-24T04:09:51;12.10;;;7.93;;
13685;SDS011;6915;48.296;8.874;2023-04-24T04:12:21;5.77;;;3.47;;
13685;SDS011;6915;48.296;8.874;2023-04-24T04:14:50;3.43;;;2.90;;
13685;SDS011;6915;48.296;8.874;2023-04-24T04:17:19;2.27;;;0.80;;
13685;SDS011;6915;48.296;8.874;2023-04-24T04:19:47;1.53;;;0.60;;
13685;SDS011;6915;48.296;8.874;2023-04-24T04:22:16;0.80;;;0.40;;
13685;SDS011;6915;48.296;8.874;2023-04-24T04:24:45;1.03;;;0.70;;
13685;SDS011;6915;48.296;8.874;2023-04-24T04:27:15;0.90;;;0.50;;
13685;SDS011;6915;48.296;8.874;2023-04-24T04:29:47;1.03;;;0.40;;
13685;SDS011;6915;48.296;8.874;2023-04-24T04:32:16;1.43;;;0.43;;
13685;SDS011;6915;48.296;8.874;2023-04-24T04:34:45;1.00;;;0.50;;
13685;SDS011;6915;48.296;8.874;2023-04-24T04:37:14;1.80;;;0.60;;
13685;SDS011;6915;48.296;8.874;2023-04-24T04:39:43;2.87;;;1.10;;
13685;SDS011;6915;48.296;8.874;2023-04-24T04:42:12;2.37;;;1.13;;
13685;SDS011;6915;48.296;8.874;2023-04-24T04:44:41;1.33;;;1.00;;
13685;SDS011;6915;48.296;8.874;2023-04-24T04:47:12;1.53;;;1.40;;
13685;SDS011;6915;48.296;8.874;2023-04-24T04:49:41;2.60;;;1.40;;
13685;SDS011;6915;48.296;8.874;2023-04-24T04:52:10;1.80;;;1.30;;
13685;SDS011;6915;48.296;8.874;2023-04-24T04:54:38;1.50;;;1.10;;
13685;SDS011;6915;48.296;8.874;2023-04-24T04:57:07;2.33;;;1.47;;
13685;SDS011;6915;48.296;8.874;2023-04-24T04:59:37;2.73;;;1.10;;
13685;SDS011;6915;48.296;8.874;2023-04-24T05:02:06;1.87;;;1.37;;
13685;SDS011;6915;48.296;8.874;2023-04-24T05:04:38;5.33;;;1.20;;
13685;SDS011;6915;48.296;8.874;2023-04-24T05:07:07;1.53;;;1.40;;
13685;SDS011;6915;48.296;8.874;2023-04-24T05:09:36;2.10;;;1.23;;
13685;SDS011;6915;48.296;8.874;2023-04-24T05:12:04;1.73;;;1.03;;
13685;SDS011;6915;48.296;8.874;2023-04-24T05:14:33;2.17;;;1.70;;
13685;SDS011;6915;48.296;8.874;2023-04-24T05:17:02;2.77;;;1.50;;
13685;SDS011;6915;48.296;8.874;2023-04-24T05:19:31;1.27;;;1.10;;
13685;SDS011;6915;48.296;8.874;2023-04-24T05:22:04;1.30;;;1.20;;
13685;SDS011;6915;48.296;8.874;2023-04-24T05:24:34;2.13;;;1.30;;
13685;SDS011;6915;48.296;8.874;2023-04-24T05:27:03;3.30;;;2.53;;
13685;SDS011;6915;48.296;8.874;2023-04-24T05:29:33;2.20;;;2.00;;
13685;SDS011;6915;48.296;8.874;2023-04-24T05:32:01;2.10;;;1.90;;
13685;SDS011;6915;48.296;8.874;2023-04-24T05:34:30;3.53;;;1.70;;
13685;SDS011;6915;48.296;8.874;2023-04-24T05:36:59;2.50;;;1.30;;
13685;SDS011;6915;48.296;8.874;2023-04-24T05:39:30;3.13;;;1.67;;
13685;SDS011;6915;48.296;8.874;2023-04-24T05:41:59;2.30;;;2.10;;
13685;SDS011;6915;48.296;8.874;2023-04-24T05:44:28;2.43;;;2.10;;
13685;SDS011;6915;48.296;8.874;2023-04-24T05:46:57;1.90;;;1.80;;
13685;SDS011;6915;48.296;8.874;2023-04-24T05:49:26;1.77;;;1.60;;
13685;SDS011;6915;48.296;8.874;2023-04-24T05:51:55;2.93;;;1.80;;
13685;SDS011;6915;48.296;8.874;2023-04-24T05:54:25;2.07;;;1.87;;
13685;SDS011;6915;48.296;8.874;2023-04-24T05:56:55;1.77;;;1.67;;
13685;SDS011;6915;48.296;8.874;2023-04-24T05:59:23;1.87;;;1.77;;
13685;SDS011;6915;48.296;8.874;2023-04-24T06:01:52;1.70;;;1.60;;
13685;SDS011;6915;48.296;8.874;2023-04-24T06:04:21;1.90;;;1.80;;
13685;SDS011;6915;48.296;8.874;2023-04-24T06:06:50;3.67;;;1.90;;
13685;SDS011;6915;48.296;8.874;2023-04-24T06:09:21;3.67;;;3.30;;
13685;SDS011;6915;48.296;8.874;2023-04-24T06:11:50;2.70;;;2.00;;
13685;SDS011;6915;48.296;8.874;2023-04-24T06:14:20;3.70;;;2.87;;
13685;SDS011;6915;48.296;8.874;2023-04-24T06:16:51;5.90;;;4.87;;
13685;SDS011;6915;48.296;8.874;2023-04-24T06:19:19;2.90;;;2.67;;
13685;SDS011;6915;48.296;8.874;2023-04-24T06:21:48;3.10;;;2.80;;
13685;SDS011;6915;48.296;8.874;2023-04-24T06:24:16;2.50;;;2.30;;
13685;SDS011;6915;48.296;8.874;2023-04-24T06:26:45;1.40;;;1.23;;
13685;SDS011;6915;48.296;8.874;2023-04-24T06:29:14;2.60;;;1.70;;
13685;SDS011;6915;48.296;8.874;2023-04-24T06:31:44;2.03;;;1.40;;
13685;SDS011;6915;48.296;8.874;2023-04-24T06:34:13;2.70;;;1.50;;
13685;SDS011;6915;48.296;8.874;2023-04-24T06:36:42;1.83;;;1.30;;
13685;SDS011;6915;48.296;8.874;2023-04-24T06:39:10;1.20;;;1.20;;
13685;SDS011;6915;48.296;8.874;2023-04-24T06:41:39;1.10;;;1.00;;
13685;SDS011;6915;48.296;8.874;2023-04-24T06:44:08;2.27;;;1.50;;
13685;SDS011;6915;48.296;8.874;2023-04-24T06:46:39;3.80;;;1.30;;
13685;SDS011;6915;48.296;8.874;2023-04-24T06:49:09;3.73;;;1.10;;
13685;SDS011;6915;48.296;8.874;2023-04-24T06:51:41;2.77;;;1.30;;
13685;SDS011;6915;48.296;8.874;2023-04-24T06:54:10;1.83;;;1.27;;
13685;SDS011;6915;48.296;8.874;2023-04-24T06:56:39;1.30;;;1.20;;
13685;SDS011;6915;48.296;8.874;2023-04-24T06:59:08;1.30;;;1.20;;
13685;SDS011;6915;48.296;8.874;2023-04-24T07:01:36;1.20;;;1.17;;
13685;SDS011;6915;48.296;8.874;2023-04-24T07:04:05;2.13;;;1.30;;
13685;SDS011;6915;48.296;8.874;2023-04-24T07:06:35;1.07;;;1.03;;
13685;SDS011;6915;48.296;8.874;2023-04-24T07:09:05;1.53;;;1.27;;
13685;SDS011;6915;48.296;8.874;2023-04-24T07:11:34;1.87;;;1.47;;
13685;SDS011;6915;48.296;8.874;2023-04-24T07:14:05;1.33;;;1.23;;
13685;SDS011;6915;48.296;8.874;2023-04-24T07:16:35;1.40;;;1.30;;
13685;SDS011;6915;48.296;8.874;2023-04-24T07:19:04;1.60;;;1.50;;
13685;SDS011;6915;48.296;8.874;2023-04-24T07:21:33;2.93;;;1.30;;
13685;SDS011;6915;48.296;8.874;2023-04-24T07:24:03;0.90;;;0.90;;
13685;SDS011;6915;48.296;8.874;2023-04-24T07:31:39;2.20;;;1.03;;
13685;SDS011;6915;48.296;8.874;2023-04-24T07:34:07;1.80;;;1.10;;
13685;SDS011;6915;48.296;8.874;2023-04-24T07:36:36;2.20;;;1.20;;
13685;SDS011;6915;48.296;8.874;2023-04-24T07:39:06;1.20;;;1.10;;
13685;SDS011;6915;48.296;8.874;2023-04-24T07:41:35;2.83;;;1.17;;
13685;SDS011;6915;48.296;8.874;2023-04-24T07:44:04;1.50;;;1.23;;
13685;SDS011;6915;48.296;8.874;2023-04-24T07:46:33;5.87;;;1.17;;
13685;SDS011;6915;48.296;8.874;2023-04-24T07:49:01;1.70;;;1.10;;
13685;SDS011;6915;48.296;8.874;2023-04-24T07:51:30;2.03;;;1.00;;
13685;SDS011;6915;48.296;8.874;2023-04-24T07:54:03;1.50;;;1.40;;
13685;SDS011;6915;48.296;8.874;2023-04-24T07:56:33;1.20;;;1.10;;
13685;SDS011;6915;48.296;8.874;2023-04-24T07:59:03;3.47;;;1.37;;
13685;SDS011;6915;48.296;8.874;2023-04-24T08:01:32;1.07;;;0.97;;
13685;SDS011;6915;48.296;8.874;2023-04-24T08:04:02;2.20;;;1.33;;
13685;SDS011;6915;48.296;8.874;2023-04-24T08:06:31;1.50;;;1.27;;
13685;SDS011;6915;48.296;8.874;2023-04-24T08:08:59;2.40;;;1.70;;
13685;SDS011;6915;48.296;8.874;2023-04-24T08:11:28;1.43;;;1.33;;
13685;SDS011;6915;48.296;8.874;2023-04-24T08:13:59;1.50;;;1.37;;
13685;SDS011;6915;48.296;8.874;2023-04-24T08:16:28;3.13;;;1.57;;
13685;SDS011;6915;48.296;8.874;2023-04-24T08:18:56;1.70;;;1.60;;
13685;SDS011;6915;48.296;8.874;2023-04-24T08:21:25;2.77;;;1.50;;
13685;SDS011;6915;48.296;8.874;2023-04-24T08:23:54;1.80;;;1.60;;
13685;SDS011;6915;48.296;8.874;2023-04-24T08:26:22;1.90;;;1.70;;
13685;SDS011;6915;48.296;8.874;2023-04-24T08:28:51;1.63;;;1.50;;
13685;SDS011;6915;48.296;8.874;2023-04-24T08:31:22;1.50;;;1.40;;
13685;SDS011;6915;48.296;8.874;2023-04-24T08:33:51;2.50;;;1.70;;
13685;SDS011;6915;48.296;8.874;2023-04-24T08:36:20;1.87;;;1.40;;
13685;SDS011;6915;48.296;8.874;2023-04-24T08:38:48;2.47;;;1.57;;
13685;SDS011;6915;48.296;8.874;2023-04-24T08:41:17;2.00;;;1.30;;
13685;SDS011;6915;48.296;8.874;2023-04-24T08:43:47;1.60;;;1.50;;
13685;SDS011;6915;48.296;8.874;2023-04-24T08:46:17;2.17;;;1.60;;
13685;SDS011;6915;48.296;8.874;2023-04-24T08:48:48;2.50;;;1.47;;
13685;SDS011;6915;48.296;8.874;2023-04-24T08:51:18;2.23;;;1.40;;
13685;SDS011;6915;48.296;8.874;2023-04-24T08:53:47;2.07;;;1.67;;
13685;SDS011;6915;48.296;8.874;2023-04-24T08:56:17;2.53;;;1.80;;
13685;SDS011;6915;48.296;8.874;2023-04-24T08:58:48;2.70;;;1.90;;
13685;SDS011;6915;48.296;8.874;2023-04-24T09:01:15;2.93;;;1.90;;
13685;SDS011;6915;48.296;8.874;2023-04-24T09:03:46;2.33;;;1.70;;
13685;SDS011;6915;48.296;8.874;2023-04-24T09:06:16;2.30;;;1.90;;
13685;SDS011;6915;48.296;8.874;2023-04-24T09:08:48;2.40;;;1.90;;
13685;SDS011;6915;48.296;8.874;2023-04-24T09:11:21;4.23;;;2.00;;
13685;SDS011;6915;48.296;8.874;2023-04-24T09:13:50;2.60;;;1.83;;
13685;SDS011;6915;48.296;8.874;2023-04-24T09:16:20;3.27;;;1.80;;
13685;SDS011;6915;48.296;8.874;2023-04-24T09:18:51;4.87;;;2.03;;
13685;SDS011;6915;48.296;8.874;2023-04-24T09:21:20;3.47;;;1.87;;
13685;SDS011;6915;48.296;8.874;2023-04-24T09:23:57;1.67;;;1.50;;
13685;SDS011;6915;48.296;8.874;2023-04-24T09:26:28;3.93;;;1.50;;
13685;SDS011;6915;48.296;8.874;2023-04-24T09:28:59;3.13;;;1.37;;
13685;SDS011;6915;48.296;8.874;2023-04-24T09:31:29;2.63;;;1.53;;
13685;SDS011;6915;48.296;8.874;2023-04-24T09:34:00;2.57;;;1.83;;
13685;SDS011;6915;48.296;8.874;2023-04-24T09:36:31;1.70;;;1.60;;
13685;SDS011;6915;48.296;8.874;2023-04-24T09:39:02;4.10;;;1.77;;
13685;SDS011;6915;48.296;8.874;2023-04-24T09:41:36;2.70;;;1.60;;
13685;SDS011;6915;48.296;8.874;2023-04-24T09:44:13;2.80;;;1.70;;
13685;SDS011;6915;48.296;8.874;2023-04-24T09:46:46;2.90;;;1.60;;
13685;SDS011;6915;48.296;8.874;2023-04-24T09:49:22;2.13;;;1.30;;
13685;SDS011;6915;48.296;8.874;2023-04-24T09:51:51;2.83;;;1.67;;
13685;SDS011;6915;48.296;8.874;2023-04-24T09:54:30;2.17;;;1.57;;
13685;SDS011;6915;48.296;8.874;2023-04-24T09:57:01;3.70;;;1.60;;
13685;SDS011;6915;48.296;8.874;2023-04-24T09:59:29;2.10;;;1.70;;
13685;SDS011;6915;48.296;8.874;2023-04-24T10:02:00;2.10;;;1.63;;
13685;SDS011;6915;48.296;8.874;2023-04-24T10:04:30;1.70;;;1.60;;
13685;SDS011;6915;48.296;8.874;2023-04-24T10:06:59;1.87;;;1.77;;
13685;SDS011;6915;48.296;8.874;2023-04-24T10:09:32;1.70;;;1.60;;
13685;SDS011;6915;48.296;8.874;2023-04-24T10:12:01;2.97;;;2.00;;
13685;SDS011;6915;48.296;8.874;2023-04-24T10:14:33;1.93;;;1.67;;
13685;SDS011;6915;48.296;8.874;2023-04-24T10:17:01;1.87;;;1.20;;
13685;SDS011;6915;48.296;8.874;2023-04-24T10:19:33;1.93;;;1.40;;
13685;SDS011;6915;48.296;8.874;2023-04-24T10:22:03;1.70;;;1.60;;
13685;SDS011;6915;48.296;8.874;2023-04-24T10:24:33;2.53;;;1.30;;
13685;SDS011;6915;48.296;8.874;2023-04-24T10:27:03;2.50;;;1.40;;
13685;SDS011;6915;48.296;8.874;2023-04-24T10:29:32;3.33;;;1.63;;
13685;SDS011;6915;48.296;8.874;2023-04-24T10:32:06;1.93;;;1.40;;
13685;SDS011;6915;48.296;8.874;2023-04-24T10:34:37;1.73;;;1.63;;
13685;SDS011;6915;48.296;8.874;2023-04-24T10:37:06;3.37;;;1.10;;
13685;SDS011;6915;48.296;8.874;2023-04-24T10:39:38;2.07;;;1.17;;
13685;SDS011;6915;48.296;8.874;2023-04-24T10:42:13;1.77;;;0.90;;
13685;SDS011;6915;48.296;8.874;2023-04-24T10:44:43;1.77;;;1.17;;
13685;SDS011;6915;48.296;8.874;2023-04-24T10:47:13;1.90;;;1.37;;
13685;SDS011;6915;48.296;8.874;2023-04-24T10:49:49;1.20;;;1.10;;
13685;SDS011;6915;48.296;8.874;2023-04-24T10:52:19;2.10;;;1.13;;
13685;SDS011;6915;48.296;8.874;2023-04-24T10:54:47;2.20;;;1.10;;
13685;SDS011;6915;48.296;8.874;2023-04-24T10:57:26;2.93;;;1.30;;
13685;SDS011;6915;48.296;8.874;2023-04-24T11:00:10;2.23;;;1.10;;
13685;SDS011;6915;48.296;8.874;2023-04-24T11:02:42;1.93;;;1.33;;
13685;SDS011;6915;48.296;8.874;2023-04-24T11:05:16;2.80;;;1.03;;
13685;SDS011;6915;48.296;8.874;2023-04-24T11:10:43;1.50;;;1.03;;
13685;SDS011;6915;48.296;8.874;2023-04-24T11:13:14;1.40;;;0.93;;
13685;SDS011;6915;48.296;8.874;2023-04-24T11:15:53;0.97;;;0.90;;
13685;SDS011;6915;48.296;8.874;2023-04-24T11:18:41;2.07;;;1.00;;
13685;SDS011;6915;48.296;8.874;2023-04-24T11:21:17;2.03;;;0.90;;
13685;SDS011;6915;48.296;8.874;2023-04-24T11:23:46;1.67;;;0.90;;
13685;SDS011;6915;48.296;8.874;2023-04-24T11:26:18;1.30;;;0.77;;
13685;SDS011;6915;48.296;8.874;2023-04-24T11:28:49;2.60;;;0.87;;
13685;SDS011;6915;48.296;8.874;2023-04-24T11:31:34;0.80;;;0.80;;
13685;SDS011;6915;48.296;8.874;2023-04-24T11:34:07;1.77;;;1.00;;
13685;SDS011;6915;48.296;8.874;2023-04-24T11:36:42;1.00;;;0.80;;
13685;SDS011;6915;48.296;8.874;2023-04-24T11:39:11;2.07;;;0.80;;
13685;SDS011;6915;48.296;8.874;2023-04-24T11:41:40;1.47;;;0.77;;
13685;SDS011;6915;48.296;8.874;2023-04-24T11:44:09;2.07;;;0.73;;
13685;SDS011;6915;48.296;8.874;2023-04-24T11:46:39;1.20;;;0.70;;
13685;SDS011;6915;48.296;8.874;2023-04-24T11:49:08;3.80;;;0.70;;
13685;SDS011;6915;48.296;8.874;2023-04-24T11:51:39;0.87;;;0.60;;
13685;SDS011;6915;48.296;8.874;2023-04-24T11:54:08;1.57;;;0.97;;
13685;SDS011;6915;48.296;8.874;2023-04-24T11:56:37;1.43;;;0.97;;
13685;SDS011;6915;48.296;8.874;2023-04-24T11:59:05;1.77;;;0.80;;
13685;SDS011;6915;48.296;8.874;2023-04-24T12:01:42;2.53;;;0.73;;
13685;SDS011;6915;48.296;8.874;2023-04-24T12:04:10;0.97;;;0.80;;
13685;SDS011;6915;48.296;8.874;2023-04-24T12:06:40;1.73;;;1.00;;
13685;SDS011;6915;48.296;8.874;2023-04-24T12:09:25;0.83;;;0.83;;
13685;SDS011;6915;48.296;8.874;2023-04-24T12:11:54;0.80;;;0.80;;
13685;SDS011;6915;48.296;8.874;2023-04-24T12:14:23;1.33;;;0.90;;
13685;SDS011;6915;48.296;8.874;2023-04-24T12:16:52;1.37;;;0.73;;
13685;SDS011;6915;48.296;8.874;2023-04-24T12:19:21;1.47;;;0.93;;
13685;SDS011;6915;48.296;8.874;2023-04-24T12:22:01;1.27;;;0.70;;
13685;SDS011;6915;48.296;8.874;2023-04-24T12:24:31;1.27;;;1.00;;
13685;SDS011;6915;48.296;8.874;2023-04-24T12:27:00;0.77;;;0.77;;
13685;SDS011;6915;48.296;8.874;2023-04-24T12:29:29;2.60;;;1.10;;
13685;SDS011;6915;48.296;8.874;2023-04-24T12:31:57;2.03;;;1.20;;
13685;SDS011;6915;48.296;8.874;2023-04-24T12:34:26;3.20;;;1.00;;
13685;SDS011;6915;48.296;8.874;2023-04-24T12:37:10;1.10;;;1.00;;
13685;SDS011;6915;48.296;8.874;2023-04-24T12:39:39;2.53;;;0.83;;
13685;SDS011;6915;48.296;8.874;2023-04-24T12:42:25;1.13;;;0.93;;
13685;SDS011;6915;48.296;8.874;2023-04-24T12:44:58;1.80;;;0.67;;
13685;SDS011;6915;48.296;8.874;2023-04-24T12:47:28;2.07;;;0.97;;
13685;SDS011;6915;48.296;8.874;2023-04-24T12:49:57;2.03;;;1.00;;
13685;SDS011;6915;48.296;8.874;2023-04-24T12:52:29;2.43;;;1.20;;
13685;SDS011;6915;48.296;8.874;2023-04-24T12:54:58;0.80;;;0.80;;
13685;SDS011;6915;48.296;8.874;2023-04-24T12:57:30;2.10;;;1.00;;
13685;SDS011;6915;48.296;8.874;2023-04-24T12:59:58;1.07;;;0.87;;
13685;SDS011;6915;48.296;8.874;2023-04-24T13:02:28;1.20;;;0.87;;
13685;SDS011;6915;48.296;8.874;2023-04-24T13:04:57;1.50;;;0.83;;
13685;SDS011;6915;48.296;8.874;2023-04-24T13:07:28;3.90;;;0.80;;
13685;SDS011;6915;48.296;8.874;2023-04-24T13:09:56;0.77;;;0.77;;
13685;SDS011;6915;48.296;8.874;2023-04-24T13:12:25;0.83;;;0.80;;
13685;SDS011;6915;48.296;8.874;2023-04-24T13:14:54;1.23;;;0.97;;
13685;SDS011;6915;48.296;8.874;2023-04-24T13:17:23;1.50;;;1.30;;
13685;SDS011;6915;48.296;8.874;2023-04-24T13:19:53;0.60;;;0.60;;
13685;SDS011;6915;48.296;8.874;2023-04-24T13:22:22;1.23;;;0.93;;
13685;SDS011;6915;48.296;8.874;2023-04-24T13:24:53;1.53;;;0.83;;
13685;SDS011;6915;48.296;8.874;2023-04-24T13:53:15;1.37;;;0.60;;
13685;SDS011;6915;48.296;8.874;2023-04-24T13:55:44;1.13;;;0.70;;
13685;SDS011;6915;48.296;8.874;2023-04-24T13:58:13;1.77;;;0.70;;
13685;SDS011;6915;48.296;8.874;2023-04-24T14:00:42;1.00;;;0.80;;
13685;SDS011;6915;48.296;8.874;2023-04-24T14:03:10;1.23;;;0.87;;
13685;SDS011;6915;48.296;8.874;2023-04-24T14:05:40;1.00;;;0.70;;
13685;SDS011;6915;48.296;8.874;2023-04-24T14:08:08;0.93;;;0.70;;
13685;SDS011;6915;48.296;8.874;2023-04-24T14:10:38;2.87;;;0.80;;
13685;SDS011;6915;48.296;8.874;2023-04-24T14:13:07;0.70;;;0.70;;
13685;SDS011;6915;48.296;8.874;2023-04-24T14:15:35;1.00;;;0.70;;
13685;SDS011;6915;48.296;8.874;2023-04-24T14:18:04;1.53;;;0.90;;
13685;SDS011;6915;48.296;8.874;2023-04-24T14:20:33;1.43;;;0.90;;
13685;SDS011;6915;48.296;8.874;2023-04-24T14:23:01;0.90;;;0.70;;
13685;SDS011;6915;48.296;8.874;2023-04-24T14:25:30;1.37;;;0.80;;
13685;SDS011;6915;48.296;8.874;2023-04-24T14:28:00;1.00;;;0.77;;
13685;SDS011;6915;48.296;8.874;2023-04-24T14:30:29;0.70;;;0.70;;
13685;SDS011;6915;48.296;8.874;2023-04-24T14:32:57;2.20;;;0.90;;
13685;SDS011;6915;48.296;8.874;2023-04-24T14:35:28;0.97;;;0.70;;
13685;SDS011;6915;48.296;8.874;2023-04-24T14:37:56;1.53;;;0.80;;
13685;SDS011;6915;48.296;8.874;2023-04-24T14:40:25;2.57;;;0.80;;
13685;SDS011;6915;48.296;8.874;2023-04-24T14:42:54;1.30;;;1.20;;
13685;SDS011;6915;48.296;8.874;2023-04-24T14:45:25;1.17;;;0.77;;
13685;SDS011;6915;48.296;8.874;2023-04-24T14:47:53;1.10;;;0.80;;
13685;SDS011;6915;48.296;8.874;2023-04-24T14:50:22;1.73;;;1.00;;
13685;SDS011;6915;48.296;8.874;2023-04-24T14:52:53;1.47;;;1.00;;
13685;SDS011;6915;48.296;8.874;2023-04-24T14:55:22;1.00;;;1.00;;
13685;SDS011;6915;48.296;8.874;2023-04-24T14:57:52;1.07;;;0.90;;
13685;SDS011;6915;48.296;8.874;2023-04-24T15:00:21;0.90;;;0.90;;
13685;SDS011;6915;48.296;8.874;2023-04-24T15:02:52;2.67;;;1.00;;
13685;SDS011;6915;48.296;8.874;2023-04-24T15:05:23;1.03;;;1.00;;
13685;SDS011;6915;48.296;8.874;2023-04-24T15:07:51;1.67;;;0.80;;
13685;SDS011;6915;48.296;8.874;2023-04-24T15:10:20;0.80;;;0.70;;
13685;SDS011;6915;48.296;8.874;2023-04-24T15:12:50;0.90;;;0.60;;
13685;SDS011;6915;48.296;8.874;2023-04-24T15:15:19;1.43;;;0.80;;
13685;SDS011;6915;48.296;8.874;2023-04-24T15:17:48;0.80;;;0.70;;
13685;SDS011;6915;48.296;8.874;2023-04-24T15:20:18;1.83;;;1.00;;
13685;SDS011;6915;48.296;8.874;2023-04-24T15:22:47;1.13;;;1.07;;
13685;SDS011;6915;48.296;8.874;2023-04-24T15:25:16;0.93;;;0.93;;
13685;SDS011;6915;48.296;8.874;2023-04-24T15:27:45;2.10;;;0.90;;
13685;SDS011;6915;48.296;8.874;2023-04-24T15:30:14;0.97;;;0.80;;
13685;SDS011;6915;48.296;8.874;2023-04-24T15:32:43;0.63;;;0.63;;
13685;SDS011;6915;48.296;8.874;2023-04-24T15:35:12;0.87;;;0.87;;
13685;SDS011;6915;48.296;8.874;2023-04-24T15:37:43;0.90;;;0.90;;
13685;SDS011;6915;48.296;8.874;2023-04-24T15:40:12;0.87;;;0.87;;
13685;SDS011;6915;48.296;8.874;2023-04-24T15:42:42;1.07;;;0.80;;
13685;SDS011;6915;48.296;8.874;2023-04-24T15:45:11;1.27;;;0.80;;
13685;SDS011;6915;48.296;8.874;2023-04-24T15:47:40;1.67;;;0.80;;
13685;SDS011;6915;48.296;8.874;2023-04-24T15:50:10;2.80;;;0.90;;
13685;SDS011;6915;48.296;8.874;2023-04-24T15:52:40;2.23;;;0.90;;
13685;SDS011;6915;48.296;8.874;2023-04-24T15:55:09;1.10;;;1.00;;
13685;SDS011;6915;48.296;8.874;2023-04-24T15:57:39;1.73;;;1.10;;
13685;SDS011;6915;48.296;8.874;2023-04-24T16:00:08;1.60;;;0.90;;
13685;SDS011;6915;48.296;8.874;2023-04-24T16:02:38;1.00;;;0.87;;
13685;SDS011;6915;48.296;8.874;2023-04-24T16:05:07;0.93;;;0.83;;
13685;SDS011;6915;48.296;8.874;2023-04-24T16:07:37;0.80;;;0.80;;
13685;SDS011;6915;48.296;8.874;2023-04-24T16:10:07;1.00;;;1.00;;
13685;SDS011;6915;48.296;8.874;2023-04-24T16:12:37;1.53;;;1.20;;
13685;SDS011;6915;48.296;8.874;2023-04-24T16:15:06;1.83;;;0.93;;
13685;SDS011;6915;48.296;8.874;2023-04-24T16:17:36;3.33;;;1.20;;
13685;SDS011;6915;48.296;8.874;2023-04-24T16:20:05;1.50;;;0.80;;
13685;SDS011;6915;48.296;8.874;2023-04-24T16:22:35;1.90;;;1.00;;
13685;SDS011;6915;48.296;8.874;2023-04-24T16:25:05;1.00;;;1.00;;
13685;SDS011;6915;48.296;8.874;2023-04-24T16:27:34;1.10;;;1.00;;
13685;SDS011;6915;48.296;8.874;2023-04-24T16:30:03;0.70;;;0.70;;
13685;SDS011;6915;48.296;8.874;2023-04-24T16:32:33;1.07;;;0.77;;
13685;SDS011;6915;48.296;8.874;2023-04-24T16:35:02;1.33;;;0.97;;
13685;SDS011;6915;48.296;8.874;2023-04-24T16:37:33;0.90;;;0.80;;
13685;SDS011;6915;48.296;8.874;2023-04-24T16:40:03;0.97;;;0.70;;
13685;SDS011;6915;48.296;8.874;2023-04-24T16:42:36;1.23;;;0.60;;
13685;SDS011;6915;48.296;8.874;2023-04-24T16:45:05;0.70;;;0.70;;
13685;SDS011;6915;48.296;8.874;2023-04-24T16:47:35;0.60;;;0.60;;
13685;SDS011;6915;48.296;8.874;2023-04-24T16:50:11;2.57;;;0.87;;
13685;SDS011;6915;48.296;8.874;2023-04-24T16:52:40;0.97;;;0.77;;
13685;SDS011;6915;48.296;8.874;2023-04-24T16:55:09;1.10;;;0.83;;
13685;SDS011;6915;48.296;8.874;2023-04-24T16:57:39;0.90;;;0.90;;
13685;SDS011;6915;48.296;8.874;2023-04-24T17:00:12;1.50;;;0.87;;
13685;SDS011;6915;48.296;8.874;2023-04-24T17:02:40;0.90;;;0.90;;